Time;durP1;ratioP1;P1;durP2;ratioP2;P2;SDS_P1;SDS_P2;PMS_P1;PMS_P2;Temp;Humidity;BMP_temperature;BMP_pressure;BME280_temperature;BME280_humidity;BME280_pressure;Samples;Min_cycle;Max_cycle;Signal;HPM_P1;HPM_P2
2023/10/28 00:01:11;;;;;;;13.20;11.15;;;;;;;9.73;100.00;97730.94;5031797;28;20031;-84
2023/10/28 00:03:36;;;;;;;13.00;10.13;;;;;;;9.96;100.00;97771.66;5032756;28;20033;-84
2023/10/28 00:06:02;;;;;;;15.95;11.38;;;;;;;9.89;100.00;97757.44;5032934;28;20080;-84
2023/10/28 00:08:28;;;;;;;14.82;11.90;;;;;;;10.00;100.00;97782.69;5031400;28;20075;-84
2023/10/28 00:10:53;;;;;;;14.32;11.85;;;;;;;9.86;100.00;97762.03;5031659;28;20037;-84
2023/10/28 00:13:19;;;;;;;16.73;12.55;;;;;;;10.00;100.00;97783.50;5032890;28;20052;-84
2023/10/28 00:15:44;;;;;;;18.02;12.52;;;;;;;9.93;100.00;97776.25;5031679;28;20537;-84
2023/10/28 00:18:09;;;;;;;16.88;12.88;;;;;;;9.97;100.00;97793.31;5032794;28;20030;-84
2023/10/28 00:20:36;;;;;;;16.02;12.48;;;;;;;9.70;100.00;97741.56;5032692;28;20073;-84
2023/10/28 00:23:03;;;;;;;16.67;12.02;;;;;;;9.76;100.00;97751.50;5029999;28;20064;-84
2023/10/28 00:25:31;;;;;;;13.75;10.73;;;;;;;9.80;100.00;97765.94;5029854;28;20090;-84
2023/10/28 00:27:57;;;;;;;16.15;12.25;;;;;;;9.93;100.00;97804.88;5030223;28;20144;-84
2023/10/28 00:30:23;;;;;;;15.70;12.45;;;;;;;9.73;100.00;97769.91;5013454;28;20033;-84
2023/10/28 00:32:50;;;;;;;15.95;12.35;;;;;;;9.82;100.00;97790.06;5030030;28;20494;-84
2023/10/28 00:35:15;;;;;;;19.58;14.23;;;;;;;9.86;100.00;97795.84;5030056;28;20107;-84
2023/10/28 00:37:41;;;;;;;22.55;15.73;;;;;;;9.79;100.00;97785.09;5029618;28;20477;-84
2023/10/28 00:40:07;;;;;;;23.25;16.67;;;;;;;9.77;100.00;97786.94;5030094;28;20026;-84
2023/10/28 00:42:37;;;;;;;23.38;17.33;;;;;;;9.68;100.00;97767.66;5029792;28;20160;-84
2023/10/28 00:45:08;;;;;;;23.67;17.00;;;;;;;9.85;100.00;97791.59;5029786;28;20369;-84
2023/10/28 00:47:35;;;;;;;22.65;16.75;;;;;;;9.65;100.00;97772.25;5029948;28;20461;-84
2023/10/28 00:50:02;;;;;;;22.30;16.40;;;;;;;9.84;100.00;97790.78;5029854;28;20034;-84
2023/10/28 00:52:28;;;;;;;18.27;14.60;;;;;;;9.91;100.00;97797.19;5029474;28;20509;-84
2023/10/28 00:54:54;;;;;;;21.10;14.88;;;;;;;9.50;100.00;97730.84;5031761;28;20113;-84
2023/10/28 00:57:20;;;;;;;23.75;17.05;;;;;;;9.86;100.00;97796.72;5030823;28;20102;-84
2023/10/28 00:59:45;;;;;;;21.10;15.75;;;;;;;9.81;100.00;97777.16;5032506;28;20057;-84
2023/10/28 01:02:12;;;;;;;24.75;17.63;;;;;;;9.85;100.00;97776.81;5032261;28;20104;-84
2023/10/28 01:04:38;;;;;;;20.98;16.33;;;;;;;9.80;100.00;97762.50;5031986;28;20032;-84
2023/10/28 01:07:04;;;;;;;21.40;16.35;;;;;;;9.72;100.00;97761.28;5030621;28;20025;-84
2023/10/28 01:09:29;;;;;;;21.10;16.10;;;;;;;9.81;100.00;97783.19;5032064;28;20057;-84
2023/10/28 01:11:55;;;;;;;21.60;16.25;;;;;;;9.87;100.00;97781.94;5032029;28;20049;-84
2023/10/28 01:14:21;;;;;;;21.77;15.85;;;;;;;9.90;100.00;97800.75;5031783;28;20030;-84
2023/10/28 01:16:49;;;;;;;16.98;13.48;;;;;;;9.62;100.00;97755.13;5032004;28;20028;-84
2023/10/28 01:19:15;;;;;;;21.88;15.82;;;;;;;9.92;100.00;97803.22;5031999;28;20032;-84
2023/10/28 01:21:41;;;;;;;21.38;16.50;;;;;;;9.78;100.00;97795.63;5031681;28;20112;-84
2023/10/28 01:24:07;;;;;;;19.25;15.88;;;;;;;9.79;100.00;97799.84;5031819;28;20116;-84
2023/10/28 01:26:32;;;;;;;18.50;14.88;;;;;;;9.84;100.00;97814.16;5030392;28;20026;-84
2023/10/28 01:28:59;;;;;;;16.25;12.93;;;;;;;9.64;100.00;97781.81;5030637;28;20139;-84
2023/10/28 01:31:24;;;;;;;17.33;13.02;;;;;;;9.85;100.00;97813.22;5031732;28;20033;-84
2023/10/28 01:33:49;;;;;;;16.80;12.98;;;;;;;9.90;100.00;97828.50;5032688;28;20053;-84
2023/10/28 01:36:16;;;;;;;16.25;12.30;;;;;;;9.72;100.00;97791.66;5035638;28;20032;-84
2023/10/28 01:38:42;;;;;;;16.80;12.43;;;;;;;9.81;100.00;97816.16;5035643;28;20053;-84
2023/10/28 01:41:10;;;;;;;16.48;11.80;;;;;;;9.61;100.00;97791.63;5035887;28;20109;-84
2023/10/28 01:43:36;;;;;;;17.58;12.80;;;;;;;9.75;100.00;97810.47;5035476;28;20495;-84
2023/10/28 01:46:01;;;;;;;17.02;13.48;;;;;;;9.87;100.00;97821.75;5035669;28;20101;-84
2023/10/28 01:48:26;;;;;;;17.83;13.77;;;;;;;9.87;100.00;97833.94;5033986;28;20059;-84
2023/10/28 01:50:52;;;;;;;16.80;12.68;;;;;;;9.60;100.00;97815.94;5035538;28;20050;-84
2023/10/28 01:53:17;;;;;;;15.30;12.27;;;;;;;9.63;100.00;97815.72;5034006;28;20040;-84
2023/10/28 01:55:44;;;;;;;17.92;13.75;;;;;;;9.73;100.00;97811.50;5035352;28;20025;-84
2023/10/28 01:58:10;;;;;;;18.25;14.02;;;;;;;9.90;100.00;97834.56;5035780;28;20091;-84
2023/10/28 02:00:35;;;;;;;19.10;15.25;;;;;;;9.83;100.00;97829.91;5035242;28;20112;-84
2023/10/28 02:03:02;;;;;;;19.77;14.95;;;;;;;9.71;100.00;97811.63;5035328;28;20083;-84
2023/10/28 02:05:27;;;;;;;17.42;14.57;;;;;;;9.77;100.00;97818.16;5034971;28;20025;-84
2023/10/28 02:07:52;;;;;;;17.05;13.77;;;;;;;9.81;100.00;97824.78;5035500;28;20034;-84
2023/10/28 02:10:18;;;;;;;16.40;13.85;;;;;;;9.94;100.00;97843.78;5033995;28;20124;-84
2023/10/28 02:12:43;;;;;;;16.38;13.65;;;;;;;9.81;100.00;97819.59;5035054;28;20120;-84
2023/10/28 02:15:09;;;;;;;15.77;13.63;;;;;;;9.92;100.00;97837.03;5035323;28;20473;-84
2023/10/28 02:17:35;;;;;;;14.77;12.93;;;;;;;10.03;100.00;97852.69;5035176;28;20029;-84
2023/10/28 02:20:04;;;;;;;16.52;13.45;;;;;;;9.98;100.00;97852.16;5035057;28;20166;-84
2023/10/28 02:22:33;;;;;;;14.20;11.55;;;;;;;10.04;100.00;97856.13;5035011;28;20030;-84
2023/10/28 02:24:59;;;;;;;12.90;11.18;;;;;;;10.02;100.00;97852.78;5033838;28;20053;-84
2023/10/28 02:27:25;;;;;;;12.68;11.35;;;;;;;10.01;100.00;97849.34;5034883;28;20025;-84
2023/10/28 02:29:50;;;;;;;13.25;11.10;;;;;;;10.14;100.00;97872.69;5033517;28;20030;-84
2023/10/28 02:32:17;;;;;;;15.32;11.55;;;;;;;9.73;100.00;97796.78;5034802;28;20037;-84
2023/10/28 02:34:42;;;;;;;13.75;11.18;;;;;;;9.79;100.00;97818.88;5032944;28;20033;-84
2023/10/28 02:37:08;;;;;;;11.90;10.52;;;;;;;10.09;100.00;97860.03;5034556;28;20435;-84
2023/10/28 02:39:33;;;;;;;13.32;11.45;;;;;;;9.82;100.00;97823.88;5034460;28;20060;-84
2023/10/28 02:42:00;;;;;;;13.32;11.15;;;;;;;10.10;100.00;97873.88;5034613;28;20406;-85
2023/10/28 02:44:26;;;;;;;12.77;10.88;;;;;;;9.99;100.00;97859.06;5034155;28;20404;-84
2023/10/28 02:46:53;;;;;;;14.85;11.43;;;;;;;9.97;100.00;97851.34;5033333;28;20021;-84
2023/10/28 02:49:18;;;;;;;13.20;11.18;;;;;;;9.98;100.00;97863.41;5034351;28;20068;-84
2023/10/28 02:51:44;;;;;;;13.63;11.35;;;;;;;10.00;100.00;97860.72;5034254;28;20061;-84
2023/10/28 02:54:09;;;;;;;14.88;11.27;;;;;;;9.81;100.00;97829.16;5034266;28;20025;-84
2023/10/28 02:56:34;;;;;;;14.90;11.57;;;;;;;10.11;100.00;97876.38;5034031;28;20041;-85
2023/10/28 02:59:00;;;;;;;15.63;12.45;;;;;;;10.04;100.00;97856.94;5034272;28;20025;-84
2023/10/28 03:01:25;;;;;;;13.43;11.50;;;;;;;9.86;100.00;97834.84;5034174;28;20087;-84
2023/10/28 03:03:51;;;;;;;15.35;11.75;;;;;;;9.75;100.00;97827.84;5032532;28;20034;-84
2023/10/28 03:06:16;;;;;;;17.15;13.57;;;;;;;9.93;100.00;97846.47;5034417;28;20481;-84
2023/10/28 03:08:42;;;;;;;18.38;13.10;;;;;;;9.97;100.00;97853.13;5034145;28;20461;-84
2023/10/28 03:11:08;;;;;;;15.73;13.23;;;;;;;10.02;100.00;97858.81;5034133;28;20072;-84
2023/10/28 03:13:33;;;;;;;19.05;14.15;;;;;;;10.04;100.00;97861.31;5032414;28;20060;-84
2023/10/28 03:15:59;;;;;;;16.58;13.18;;;;;;;9.91;100.00;97846.59;5032511;28;20504;-84
2023/10/28 03:18:24;;;;;;;15.65;12.25;;;;;;;9.88;100.00;97849.41;5029483;28;20036;-84
2023/10/28 03:20:50;;;;;;;16.08;13.27;;;;;;;9.90;100.00;97838.88;5033783;28;20037;-84
2023/10/28 03:23:15;;;;;;;15.85;13.95;;;;;;;9.97;100.00;97855.72;5033827;28;20481;-84
2023/10/28 03:25:41;;;;;;;15.15;12.73;;;;;;;9.92;100.00;97842.22;5033518;28;20051;-84
2023/10/28 03:28:06;;;;;;;14.70;12.68;;;;;;;9.92;100.00;97848.25;5032434;28;20036;-84
2023/10/28 03:30:32;;;;;;;18.25;13.02;;;;;;;9.57;100.00;97779.81;5033469;28;20059;-84
2023/10/28 03:32:58;;;;;;;15.50;12.95;;;;;;;9.99;100.00;97839.06;5032263;28;20083;-84
2023/10/28 03:35:24;;;;;;;15.05;12.45;;;;;;;9.94;100.00;97846.38;5033658;28;20041;-83
2023/10/28 03:37:49;;;;;;;14.18;12.35;;;;;;;9.72;100.00;97809.88;5033130;28;20045;-84
2023/10/28 03:40:14;;;;;;;16.10;13.38;;;;;;;10.06;100.00;97870.66;5033486;28;20066;-84
2023/10/28 03:42:40;;;;;;;16.95;14.18;;;;;;;9.93;100.00;97856.88;5033639;28;20377;-84
2023/10/28 03:45:07;;;;;;;16.25;13.48;;;;;;;10.01;100.00;97864.97;5033446;28;20108;-84
2023/10/28 03:47:33;;;;;;;15.45;12.60;;;;;;;9.88;100.00;97851.19;5030464;28;20072;-84
2023/10/28 03:49:59;;;;;;;17.40;13.77;;;;;;;10.06;100.00;97875.03;5031234;28;20033;-84
2023/10/28 03:52:25;;;;;;;16.52;13.75;;;;;;;10.07;100.00;97877.53;5030932;28;20508;-84
2023/10/28 03:54:50;;;;;;;15.77;13.00;;;;;;;9.77;100.00;97828.56;5030625;28;20037;-84
2023/10/28 03:57:15;;;;;;;16.85;13.27;;;;;;;9.87;100.00;97844.34;5030164;28;20033;-84
2023/10/28 03:59:41;;;;;;;18.42;13.90;;;;;;;9.97;100.00;97869.53;5030582;28;20042;-84
2023/10/28 04:02:06;;;;;;;18.38;14.13;;;;;;;9.79;100.00;97831.88;5030854;28;20128;-84
2023/10/28 04:04:31;;;;;;;18.55;14.35;;;;;;;9.84;100.00;97847.16;5030439;28;20044;-84
2023/10/28 04:06:57;;;;;;;14.88;13.18;;;;;;;10.01;100.00;97864.97;5030379;28;20044;-84
2023/10/28 04:09:22;;;;;;;17.67;14.32;;;;;;;10.00;100.00;97866.72;5030777;28;20037;-84
2023/10/28 04:11:47;;;;;;;15.55;13.25;;;;;;;9.99;100.00;97878.09;5030265;28;20036;-84
2023/10/28 04:14:13;;;;;;;15.70;13.18;;;;;;;9.96;100.00;97859.25;5030328;28;20495;-83
2023/10/28 04:16:39;;;;;;;17.77;13.35;;;;;;;9.99;100.00;97861.66;5013497;28;20528;-83
2023/10/28 04:19:04;;;;;;;14.63;11.80;;;;;;;9.85;100.00;97846.19;5031903;28;20080;-83
2023/10/28 04:21:30;;;;;;;15.80;13.18;;;;;;;9.94;100.00;97855.94;5032653;28;20408;-83
2023/10/28 04:23:55;;;;;;;15.07;12.70;;;;;;;10.11;100.00;97885.91;5032316;28;20055;-83
2023/10/28 04:26:20;;;;;;;14.57;11.55;;;;;;;9.99;100.00;97869.44;5031254;28;20026;-83
2023/10/28 04:28:46;;;;;;;16.90;13.55;;;;;;;9.99;100.00;97867.69;5032155;28;20073;-83
2023/10/28 04:31:11;;;;;;;15.48;11.98;;;;;;;9.82;100.00;97834.28;5032487;28;20063;-83
2023/10/28 04:33:36;;;;;;;14.55;12.13;;;;;;;9.91;100.00;97862.19;5032210;28;20025;-83
2023/10/28 04:36:03;;;;;;;15.30;12.32;;;;;;;9.86;100.00;97853.91;5032383;28;20045;-83
2023/10/28 04:38:29;;;;;;;14.85;11.45;;;;;;;9.99;100.00;97890.25;5032154;28;20107;-83
2023/10/28 04:40:56;;;;;;;16.13;13.30;;;;;;;9.97;100.00;97892.97;5032167;28;20048;-83
2023/10/28 04:43:22;;;;;;;14.82;12.07;;;;;;;9.89;100.00;97884.03;5032377;28;20083;-83
2023/10/28 04:45:49;;;;;;;14.70;12.45;;;;;;;9.85;100.00;97883.44;5030721;28;20033;-83
2023/10/28 04:48:15;;;;;;;14.20;11.80;;;;;;;9.78;100.00;97874.44;5031203;28;20374;-83
2023/10/28 04:50:41;;;;;;;13.15;11.35;;;;;;;9.74;100.00;97868.63;5032163;28;20112;-83
2023/10/28 04:53:07;;;;;;;13.98;11.85;;;;;;;9.84;100.00;97892.19;5031961;28;20113;-83
2023/10/28 04:55:32;;;;;;;15.25;12.02;;;;;;;9.69;100.00;97875.06;5032042;28;20377;-83
2023/10/28 04:57:57;;;;;;;15.68;12.75;;;;;;;9.50;100.00;97847.78;5031884;28;20025;-83
2023/10/28 05:00:22;;;;;;;16.30;12.35;;;;;;;9.68;100.00;97873.41;5031995;28;20049;-83
2023/10/28 05:02:48;;;;;;;15.27;12.73;;;;;;;9.88;100.00;97909.22;5030429;28;20129;-83
2023/10/28 05:05:14;;;;;;;16.98;13.65;;;;;;;9.69;100.00;97875.91;5032363;28;20087;-83
2023/10/28 05:07:39;;;;;;;14.98;11.93;;;;;;;9.86;100.00;97905.91;5031619;28;20036;-83
2023/10/28 05:10:05;;;;;;;13.98;11.10;;;;;;;9.85;100.00;97901.63;5031470;28;20025;-83
2023/10/28 05:12:32;;;;;;;13.18;11.27;;;;;;;9.90;100.00;97904.75;5031918;28;20057;-83
2023/10/28 05:14:58;;;;;;;12.77;10.85;;;;;;;9.97;100.00;97916.34;5031504;28;20076;-83
2023/10/28 05:17:25;;;;;;;12.00;10.73;;;;;;;9.84;100.00;97896.56;5030465;28;20017;-83
2023/10/28 05:19:51;;;;;;;11.90;9.73;;;;;;;9.85;100.00;97893.00;5031745;28;20037;-83
2023/10/28 05:22:18;;;;;;;11.85;9.80;;;;;;;9.96;100.00;97916.47;5031889;28;20026;-83
2023/10/28 05:24:44;;;;;;;13.48;10.48;;;;;;;9.99;100.00;97917.09;5031639;28;20029;-83
2023/10/28 05:27:10;;;;;;;12.43;9.93;;;;;;;9.81;100.00;97886.38;5031752;28;20029;-83
2023/10/28 05:29:36;;;;;;;9.68;8.68;;;;;;;10.04;100.00;97928.94;5031751;28;20029;-83
2023/10/28 05:32:01;;;;;;;12.50;9.88;;;;;;;9.91;100.00;97903.81;5032005;28;20018;-83
2023/10/28 05:34:26;;;;;;;12.52;10.13;;;;;;;10.12;100.00;97930.06;5031839;28;20037;-83
2023/10/28 05:36:52;;;;;;;9.55;8.05;;;;;;;9.87;100.00;97906.75;5030019;28;20030;-83
2023/10/28 05:39:17;;;;;;;10.27;8.90;;;;;;;9.91;100.00;97901.22;5031682;28;20454;-83
2023/10/28 05:41:43;;;;;;;10.75;8.40;;;;;;;9.95;100.00;97910.44;5031512;28;20025;-83
2023/10/28 05:44:08;;;;;;;9.15;8.00;;;;;;;10.10;100.00;97934.50;5031504;28;20435;-83
2023/10/28 05:46:34;;;;;;;11.32;9.00;;;;;;;9.97;100.00;97925.94;5031781;28;20032;-83
2023/10/28 05:49:00;;;;;;;12.68;8.43;;;;;;;9.97;100.00;97923.34;5031496;28;20031;-83
2023/10/28 05:51:26;;;;;;;11.23;8.73;;;;;;;9.62;100.00;97863.47;5031724;28;20504;-83
2023/10/28 05:53:51;;;;;;;10.65;8.95;;;;;;;10.07;100.00;97944.31;5030006;28;20025;-83
2023/10/28 05:56:17;;;;;;;11.13;9.43;;;;;;;10.10;100.00;97955.31;5031831;28;20493;-83
2023/10/28 05:58:43;;;;;;;13.38;9.40;;;;;;;10.11;100.00;97959.63;5031276;28;20033;-83
2023/10/28 06:01:09;;;;;;;10.48;8.50;;;;;;;10.15;100.00;97968.00;5063445;28;20021;-83
2023/10/28 06:03:34;;;;;;;10.68;8.55;;;;;;;9.93;100.00;97924.50;5063802;28;20087;-83
2023/10/28 06:06:00;;;;;;;10.98;8.73;;;;;;;10.13;100.00;97962.91;5031290;28;20493;-83
2023/10/28 06:08:25;;;;;;;10.65;8.00;;;;;;;10.12;100.00;97958.66;5031763;28;20034;-83
2023/10/28 06:10:51;;;;;;;8.57;7.57;;;;;;;10.06;100.00;97946.06;5031212;28;20025;-83
2023/10/28 06:13:16;;;;;;;8.63;6.75;;;;;;;9.99;100.00;97929.28;5031136;28;20029;-83
2023/10/28 06:15:41;;;;;;;7.63;6.82;;;;;;;10.19;100.00;97959.03;5031033;28;20021;-83
2023/10/28 06:18:07;;;;;;;8.77;7.03;;;;;;;10.10;100.00;97941.50;5031447;28;20033;-83
2023/10/28 06:20:33;;;;;;;8.10;7.30;;;;;;;10.16;100.00;97938.47;5033357;28;20068;-83
2023/10/28 06:22:59;;;;;;;7.47;6.78;;;;;;;10.38;100.00;97975.03;5034632;28;20034;-83
2023/10/28 06:25:25;;;;;;;9.20;6.85;;;;;;;10.20;100.00;97945.94;5034818;28;20036;-83
2023/10/28 06:27:50;;;;;;;7.45;6.65;;;;;;;10.34;100.00;97960.56;5034517;28;20029;-83
2023/10/28 06:30:16;;;;;;;8.93;7.30;;;;;;;10.42;100.00;97976.47;5034641;28;20120;-83
2023/10/28 06:32:41;;;;;;;9.93;6.57;;;;;;;10.35;100.00;97964.00;5034582;28;20465;-83
2023/10/28 06:35:07;;;;;;;7.53;6.28;;;;;;;10.53;100.00;97975.66;5034602;28;20506;-83
2023/10/28 06:37:32;;;;;;;6.68;5.88;;;;;;;10.45;100.00;97978.84;5034355;28;20203;-83
2023/10/28 06:40:01;;;;;;;9.23;5.90;;;;;;;10.39;100.00;97955.03;5034664;28;20068;-83
2023/10/28 06:42:26;;;;;;;7.03;5.45;;;;;;;10.45;100.00;97965.84;5034431;28;20036;-83
2023/10/28 06:44:51;;;;;;;6.20;5.57;;;;;;;10.66;100.00;97989.47;5034432;28;20451;-83
2023/10/28 06:47:17;;;;;;;7.18;5.80;;;;;;;10.63;100.00;97979.28;5034560;28;20026;-83
2023/10/28 06:49:43;;;;;;;6.90;6.15;;;;;;;10.90;100.00;98017.25;5034295;28;20029;-83
2023/10/28 06:52:08;;;;;;;6.80;5.78;;;;;;;10.71;100.00;97979.53;5034384;28;20484;-83
2023/10/28 06:54:34;;;;;;;11.23;6.15;;;;;;;10.85;100.00;97994.13;5034205;28;20481;-83
2023/10/28 06:56:59;;;;;;;9.75;6.38;;;;;;;10.90;100.00;97999.84;5034019;28;20032;-83
2023/10/28 06:59:26;;;;;;;7.68;5.75;;;;;;;11.08;100.00;98002.88;5034095;28;20048;-83
2023/10/28 07:01:51;;;;;;;7.53;6.30;;;;;;;11.19;100.00;98009.84;5066156;28;20449;-83
2023/10/28 07:04:17;;;;;;;8.43;6.57;;;;;;;11.11;100.00;97992.19;5034021;28;20028;-83
2023/10/28 07:06:42;;;;;;;8.68;5.82;;;;;;;10.87;100.00;97947.13;5033817;28;20492;-83
2023/10/28 07:09:08;;;;;;;6.75;5.47;;;;;;;11.36;100.00;98019.84;5034056;28;20029;-83
2023/10/28 07:11:34;;;;;;;7.03;5.22;;;;;;;11.27;100.00;98002.28;5034002;28;20030;-83
2023/10/28 07:13:59;;;;;;;5.18;4.63;;;;;;;11.48;100.00;98037.16;5033600;28;20084;-83
2023/10/28 07:16:26;;;;;;;5.15;4.43;;;;;;;11.51;100.00;98030.91;5032867;28;20034;-83
2023/10/28 07:18:51;;;;;;;6.70;4.63;;;;;;;11.43;100.00;97984.53;5033770;28;20037;-83
2023/10/28 07:21:16;;;;;;;7.32;4.15;;;;;;;11.93;100.00;98025.97;5034231;28;20026;-83
2023/10/28 07:23:42;;;;;;;8.75;4.30;;;;;;;12.18;100.00;98030.09;5033760;28;20087;-83
2023/10/28 07:26:08;;;;;;;7.97;4.60;;;;;;;12.13;100.00;97978.22;5065432;28;20053;-83
2023/10/28 07:28:34;;;;;;;5.35;4.47;;;;;;;12.68;100.00;98044.31;5033562;28;20076;-83
2023/10/28 07:31:00;;;;;;;6.70;4.57;;;;;;;12.65;100.00;98012.41;5033126;28;20068;-83
2023/10/28 07:33:26;;;;;;;5.43;4.15;;;;;;;12.90;100.00;98026.91;5033152;28;20104;-83
2023/10/28 07:35:51;;;;;;;5.15;4.25;;;;;;;13.14;100.00;98058.84;5033371;28;20525;-83
2023/10/28 07:38:18;;;;;;;4.43;4.03;;;;;;;13.08;100.00;98028.00;5033236;28;20060;-83
2023/10/28 07:40:47;;;;;;;7.38;4.97;;;;;;;13.19;100.00;98035.78;5033410;28;20023;-83
2023/10/28 07:43:14;;;;;;;5.03;3.65;;;;;;;13.25;100.00;98028.41;5033303;28;20071;-83
2023/10/28 07:45:40;;;;;;;7.55;4.38;;;;;;;13.39;100.00;98049.81;5033465;28;20032;-83
2023/10/28 07:48:07;;;;;;;4.15;3.75;;;;;;;13.57;100.00;98057.06;5033400;28;20034;-83
2023/10/28 07:50:33;;;;;;;4.45;4.00;;;;;;;13.63;100.00;98062.63;5033164;28;20044;-83
2023/10/28 07:52:58;;;;;;;6.80;4.32;;;;;;;13.58;100.00;98074.44;5032821;28;20473;-83
2023/10/28 07:55:24;;;;;;;7.93;4.25;;;;;;;13.54;100.00;98081.72;5032803;28;20022;-83
2023/10/28 07:57:49;;;;;;;5.95;3.78;;;;;;;13.64;100.00;98097.47;5032738;28;20159;-83
2023/10/28 08:00:15;;;;;;;7.90;4.45;;;;;;;13.42;100.00;98054.81;5033180;28;20030;-83
2023/10/28 08:02:44;;;;;;;6.75;4.47;;;;;;;13.61;100.00;98080.25;5033056;28;20480;-83
2023/10/28 08:05:10;;;;;;;5.57;4.97;;;;;;;13.80;100.00;98097.00;5032720;28;20064;-83
2023/10/28 08:07:36;;;;;;;6.68;4.45;;;;;;;13.78;100.00;98102.38;5032795;28;20413;-83
2023/10/28 08:10:02;;;;;;;6.75;4.68;;;;;;;13.71;100.00;98088.97;5032471;28;20029;-83
2023/10/28 08:12:27;;;;;;;4.32;3.78;;;;;;;13.94;100.00;98118.44;5032982;28;20030;-83
2023/10/28 08:14:52;;;;;;;5.20;4.20;;;;;;;13.82;100.00;98097.69;5032562;28;20076;-83
2023/10/28 08:17:18;;;;;;;7.35;4.60;;;;;;;13.79;100.00;98090.13;5064717;28;20036;-83
2023/10/28 08:19:43;;;;;;;6.97;4.32;;;;;;;13.88;100.00;98116.34;5032928;28;20028;-83
2023/10/28 08:22:08;;;;;;;4.47;4.07;;;;;;;13.67;100.00;98111.13;5032373;28;20026;-83
2023/10/28 08:24:34;;;;;;;4.53;4.13;;;;;;;13.46;100.00;98105.06;5032474;28;20107;-83
2023/10/28 08:26:59;;;;;;;5.95;4.60;;;;;;;13.14;100.00;98090.22;5032206;28;20112;-83
2023/10/28 08:29:25;;;;;;;4.63;3.97;;;;;;;13.26;100.00;98126.81;5032675;28;20032;-83
2023/10/28 08:31:50;;;;;;;5.93;3.92;;;;;;;13.02;100.00;98098.22;5032490;28;20438;-83
2023/10/28 08:34:16;;;;;;;4.25;3.85;;;;;;;13.10;100.00;98122.78;5032499;28;20071;-83
2023/10/28 08:36:42;;;;;;;9.07;4.45;;;;;;;13.12;100.00;98123.50;5032706;28;20071;-88
2023/10/28 08:39:07;;;;;;;7.00;4.38;;;;;;;13.13;100.00;98130.38;5030482;28;20136;-89
2023/10/28 08:41:34;;;;;;;5.10;3.90;;;;;;;13.15;100.00;98128.47;5032999;28;20025;-89
2023/10/28 08:44:04;;;;;;;6.10;4.20;;;;;;;13.11;100.00;98124.47;5030922;28;20030;-90
2023/10/28 08:46:31;;;;;;;6.20;4.18;;;;;;;12.91;100.00;98086.88;5063088;28;20447;-84
2023/10/28 08:48:58;;;;;;;6.82;4.82;;;;;;;13.16;100.00;98130.13;5031261;28;20091;-83
2023/10/28 08:51:24;;;;;;;7.75;4.78;;;;;;;13.04;100.00;98109.41;5032095;28;20029;-83
2023/10/28 08:53:55;;;;;;;8.43;5.15;;;;;;;13.11;100.00;98110.56;5030161;28;20088;-84
2023/10/28 08:56:23;;;;;;;9.10;5.53;;;;;;;13.27;100.00;98134.50;5032114;28;20053;-83
2023/10/28 08:58:50;;;;;;;6.07;5.30;;;;;;;13.25;100.00;98117.31;5031568;28;20044;-84
2023/10/28 09:01:19;;;;;;;6.30;5.28;;;;;;;13.43;100.00;98134.09;5031557;28;20033;-84
2023/10/28 09:03:47;;;;;;;7.47;5.18;;;;;;;13.30;100.00;98115.13;5031507;28;20026;-84
2023/10/28 09:06:12;;;;;;;6.50;4.85;;;;;;;13.53;100.00;98144.63;5030648;28;20025;-83
2023/10/28 09:08:38;;;;;;;5.18;4.68;;;;;;;13.48;100.00;98138.00;5029020;28;20087;-84
2023/10/28 09:11:04;;;;;;;6.30;4.65;;;;;;;13.53;100.00;98149.88;5031050;28;20551;-83
2023/10/28 09:13:30;;;;;;;4.72;4.22;;;;;;;13.17;100.00;98097.81;5031353;28;20034;-83
2023/10/28 09:15:56;;;;;;;6.53;4.47;;;;;;;13.17;100.00;98107.44;5029936;28;20144;-84
2023/10/28 09:18:21;;;;;;;6.35;5.22;;;;;;;13.34;100.00;98148.75;5031447;28;20597;-84
2023/10/28 09:20:47;;;;;;;5.20;4.32;;;;;;;13.24;100.00;98150.47;5031404;28;20477;-89
2023/10/28 09:23:13;;;;;;;7.20;4.75;;;;;;;13.25;100.00;98161.75;5029687;28;20120;-83
2023/10/28 09:25:39;;;;;;;4.53;4.13;;;;;;;13.14;100.00;98168.63;5031272;28;20384;-84
2023/10/28 09:28:14;;;;;;;6.25;4.82;;;;;;;12.96;100.00;98151.81;5031067;28;20045;-84
2023/10/28 09:30:46;;;;;;;6.90;4.65;;;;;;;13.04;100.00;98164.28;5031346;28;20048;-84
2023/10/28 09:33:13;;;;;;;5.85;4.43;;;;;;;13.00;100.00;98150.63;5030927;28;20057;-83
2023/10/28 09:35:41;;;;;;;4.95;4.55;;;;;;;12.93;100.00;98136.38;5031036;28;20399;-84
2023/10/28 09:38:08;;;;;;;5.72;5.13;;;;;;;13.20;100.00;98175.16;5031027;28;20080;-84
2023/10/28 09:40:34;;;;;;;5.40;4.75;;;;;;;12.91;100.00;98106.94;5031272;28;20396;-84
2023/10/28 09:43:02;;;;;;;5.30;4.80;;;;;;;13.17;100.00;98149.25;5031254;28;20498;-84
2023/10/28 09:45:28;;;;;;;5.22;4.50;;;;;;;13.27;100.00;98163.25;5031173;28;20026;-84
2023/10/28 09:47:58;;;;;;;5.60;4.55;;;;;;;13.18;100.00;98149.13;5030883;28;20079;-84
2023/10/28 09:50:25;;;;;;;6.22;4.53;;;;;;;13.37;100.00;98179.06;5031270;28;20072;-84
2023/10/28 09:52:58;;;;;;;5.18;4.78;;;;;;;13.08;100.00;98132.53;5031266;28;20548;-83
2023/10/28 09:55:34;;;;;;;5.15;4.68;;;;;;;13.13;100.00;98138.22;5032900;28;20048;-83
2023/10/28 09:58:24;;;;;;;6.53;5.18;;;;;;;13.26;100.00;98150.31;5034578;28;20044;-83
2023/10/28 10:00:57;;;;;;;7.32;5.10;;;;;;;13.35;100.00;98149.56;5034857;28;20056;-84
2023/10/28 10:03:41;;;;;;;7.15;5.28;;;;;;;13.64;100.00;98189.03;5034627;28;20030;-83
2023/10/28 10:06:08;;;;;;;5.90;4.60;;;;;;;13.64;100.00;98173.34;5034337;28;20080;-84
2023/10/28 10:08:36;;;;;;;5.72;5.13;;;;;;;13.85;100.00;98189.03;5033924;28;20072;-84
2023/10/28 10:11:01;;;;;;;5.70;5.15;;;;;;;13.76;100.00;98159.25;5034117;28;20033;-84
2023/10/28 10:13:26;;;;;;;7.93;4.85;;;;;;;13.87;100.00;98156.56;5034624;28;20026;-84
2023/10/28 10:16:03;;;;;;;6.18;4.35;;;;;;;14.07;100.00;98173.19;5034327;28;20036;-84
2023/10/28 10:18:37;;;;;;;6.63;5.10;;;;;;;13.95;100.00;98150.69;5033862;28;20125;-84
2023/10/28 10:21:04;;;;;;;4.72;4.15;;;;;;;14.18;100.00;98170.50;5031359;28;20060;-83
2023/10/28 10:23:43;;;;;;;5.13;4.55;;;;;;;14.32;100.00;98184.22;5034171;28;20025;-83
2023/10/28 10:26:30;;;;;;;6.38;4.75;;;;;;;14.18;100.00;98146.94;5026894;28;20029;-83
2023/10/28 10:29:00;;;;;;;4.50;4.05;;;;;;;14.54;100.00;98180.59;5033566;28;20030;-83
2023/10/28 10:31:36;;;;;;;5.35;4.60;;;;;;;14.53;100.00;98165.84;5033971;28;20067;-83
2023/10/28 10:34:03;;;;;;;5.05;4.15;;;;;;;14.66;100.00;98180.41;5033639;28;20048;-84
2023/10/28 10:36:30;;;;;;;6.47;3.92;;;;;;;14.73;100.00;98178.06;5032694;28;20026;-83
2023/10/28 10:39:16;;;;;;;4.80;3.60;;;;;;;14.70;100.00;98165.22;5033402;28;20103;-83
2023/10/28 10:41:47;;;;;;;4.47;3.90;;;;;;;14.94;100.00;98194.53;5033773;28;20513;-84
2023/10/28 10:44:35;;;;;;;6.28;3.47;;;;;;;15.06;100.00;98199.66;5033409;28;20501;-83
2023/10/28 10:47:01;;;;;;;5.80;3.45;;;;;;;15.00;100.00;98193.19;5032007;28;20123;-83
2023/10/28 10:49:30;;;;;;;3.55;3.25;;;;;;;14.77;100.00;98176.00;5033681;28;20032;-83
2023/10/28 10:51:56;;;;;;;3.28;2.97;;;;;;;14.61;100.00;98176.50;5033896;28;20380;-83
2023/10/28 10:54:28;;;;;;;5.00;3.30;;;;;;;14.50;100.00;98166.97;5033413;28;20111;-83
2023/10/28 10:56:53;;;;;;;;;;;;;;;14.63;100.00;98206.88;5033467;28;20040;-84
2023/10/28 10:59:19;;;;;;;4.85;3.03;;;;;;;14.50;100.00;98190.53;5033311;28;19908;-84
2023/10/28 11:01:46;;;;;;;4.80;3.72;;;;;;;14.55;100.00;98203.25;5033490;28;20030;-84
2023/10/28 11:04:11;;;;;;;3.47;3.05;;;;;;;14.55;100.00;98192.75;5032950;28;20021;-84
2023/10/28 11:06:37;;;;;;;5.28;3.40;;;;;;;14.50;100.00;98208.88;5031031;28;20707;-84
2023/10/28 11:09:04;;;;;;;4.15;3.42;;;;;;;14.08;100.00;98140.00;5041648;28;20120;-85
2023/10/28 11:11:29;;;;;;;3.33;3.03;;;;;;;14.38;100.00;98215.97;5047655;28;20025;-85
2023/10/28 11:13:56;;;;;;;4.05;3.33;;;;;;;14.31;100.00;98206.94;5033514;28;20534;-84
2023/10/28 11:16:23;;;;;;;3.63;3.30;;;;;;;14.12;100.00;98197.22;5033167;28;20025;-85
2023/10/28 11:18:49;;;;;;;4.85;3.28;;;;;;;14.07;100.00;98180.22;5033246;28;20477;-84